ES-0143 weather

Campo de vuelo de Martinamatos
Santa Cruz del Retamar, Castilla-La Mancha, Spain

Public forecast

Using degrees Celsius for public forecast. Weather courtesy of forecast.io.

Closest aviation weather report (METAR) to Campo de vuelo de Martinamatos

Closest report is Getafe Air Base, 28.6 nm (53.0 km) ENE. Retrieved 2019/10/23 11:21 UTC (7 minutes ago):

LEGT 231121Z 23009KT 9999 -RA FEW007 SCT009 BKN015 10/08 Q1007

Closest aviation forecast (TAF) to Campo de vuelo de Martinamatos

Forecast is more than 12 hours old.

Closest forecast is Getafe Air Base, 28.6 nm (53.0 km) ENE. Retrieved 2018/03/28 12:33 UTC (2 years ago):

TAF LEGT 281100Z 2812/2824 24010KT CAVOK PROB40 TEMPO 2814/2818 27015G25KT TEMPO 2820/2824 28008KT